createdAt,value
2022-08-17T00:04:59.203Z,4.90
2022-08-17T00:10:04.800Z,5.85
2022-08-17T00:15:15.190Z,4.60
2022-08-17T00:20:21.599Z,4.50
2022-08-17T00:25:36.496Z,4.68
2022-08-17T00:30:51.353Z,3.95
2022-08-17T00:36:00.271Z,5.37
2022-08-17T00:41:08.523Z,4.53
2022-08-17T00:46:19.121Z,4.63
2022-08-17T00:51:40.326Z,4.70
2022-08-17T00:56:51.462Z,5.13
2022-08-17T01:02:00.227Z,5.18
2022-08-17T01:07:08.192Z,4.75
2022-08-17T01:12:15.451Z,4.60
2022-08-17T01:17:23.850Z,4.53
2022-08-17T01:22:32.381Z,4.65
2022-08-17T01:27:39.982Z,4.50
2022-08-17T01:32:46.317Z,4.60
2022-08-17T01:38:00.901Z,4.70
2022-08-17T01:43:11.780Z,4.70
2022-08-17T01:48:17.770Z,4.93
2022-08-17T01:53:33.197Z,4.45
2022-08-17T01:58:40.402Z,4.72
2022-08-17T02:03:59.049Z,4.97
2022-08-17T02:09:17.005Z,4.63
2022-08-17T02:14:22.498Z,4.63
2022-08-17T02:19:28.010Z,4.53
2022-08-17T02:24:58.698Z,5.28
2022-08-17T02:30:04.408Z,4.85
2022-08-17T02:35:30.499Z,4.30
2022-08-17T02:40:40.742Z,4.97
2022-08-17T02:45:46.784Z,5.00
2022-08-17T02:50:52.416Z,4.57
2022-08-17T02:56:00.601Z,4.60
2022-08-17T03:01:07.903Z,4.55
2022-08-17T03:06:13.950Z,4.45
2022-08-17T03:11:22.277Z,4.43
2022-08-17T03:16:27.928Z,4.35
2022-08-17T03:21:36.411Z,5.07
2022-08-17T03:26:44.607Z,5.27
2022-08-17T03:31:50.376Z,5.27
2022-08-17T03:36:55.900Z,5.60
2022-08-17T03:42:31.605Z,5.30
2022-08-17T03:47:50.101Z,4.70
2022-08-17T03:53:08.158Z,5.20
2022-08-17T03:58:16.211Z,4.95
2022-08-17T04:03:22.062Z,5.00
2022-08-17T04:08:27.620Z,4.95
2022-08-17T04:13:35.856Z,4.78
2022-08-17T04:18:41.347Z,4.57
2022-08-17T04:23:49.671Z,4.67
2022-08-17T04:28:58.682Z,4.93
2022-08-17T04:34:04.422Z,4.97
2022-08-17T04:39:10.013Z,4.57
2022-08-17T04:44:36.755Z,4.90
2022-08-17T04:49:46.958Z,5.20
2022-08-17T04:54:55.111Z,4.60
2022-08-17T05:00:03.826Z,5.03
2022-08-17T05:05:10.492Z,4.88
2022-08-17T05:10:19.971Z,4.30
2022-08-17T05:15:33.170Z,4.30
2022-08-17T05:20:42.458Z,4.82
2022-08-17T05:25:50.536Z,4.50
2022-08-17T05:31:00.151Z,4.60
2022-08-17T05:36:08.314Z,4.30
2022-08-17T05:41:14.537Z,4.45
2022-08-17T05:46:27.419Z,4.60
2022-08-17T05:51:55.947Z,4.95
2022-08-17T05:57:14.412Z,4.72
2022-08-17T06:02:28.918Z,4.20
2022-08-17T06:07:48.211Z,4.17
2022-08-17T06:13:06.987Z,3.80
2022-08-17T06:18:18.988Z,3.80
2022-08-17T06:23:30.109Z,3.77
2022-08-17T06:28:44.162Z,3.97
2022-08-17T06:33:53.068Z,4.28
2022-08-17T06:39:10.656Z,3.80
2022-08-17T06:44:43.119Z,3.50
2022-08-17T06:49:55.565Z,4.38
2022-08-17T06:55:07.762Z,4.83
2022-08-17T07:00:26.967Z,4.17
2022-08-17T07:05:40.651Z,5.47
2022-08-17T07:10:51.152Z,4.53
2022-08-17T07:16:03.394Z,5.47
2022-08-17T07:21:26.721Z,5.85
2022-08-17T07:26:32.679Z,5.97
2022-08-17T07:31:38.276Z,5.70
2022-08-17T07:36:46.430Z,6.43
2022-08-17T07:41:57.519Z,7.03
2022-08-17T07:47:16.944Z,7.10
2022-08-17T07:52:50.417Z,6.57
2022-08-17T07:58:06.377Z,7.63
2022-08-17T08:03:28.562Z,7.03
2022-08-17T08:08:43.229Z,7.20
2022-08-17T08:13:50.297Z,6.85
2022-08-17T08:18:58.752Z,6.97
2022-08-17T08:24:30.920Z,7.10
2022-08-17T08:29:46.468Z,7.47
2022-08-17T08:35:05.574Z,7.68
2022-08-17T08:40:31.086Z,7.80
2022-08-17T08:45:49.347Z,7.87
2022-08-17T08:51:00.140Z,7.20
2022-08-17T08:56:15.387Z,7.28
2022-08-17T09:01:27.715Z,8.10
2022-08-17T09:06:45.285Z,8.45
2022-08-17T09:12:10.928Z,8.40
2022-08-17T09:17:19.300Z,7.70
2022-08-17T09:22:33.536Z,8.63
2022-08-17T09:27:51.186Z,9.18
2022-08-17T09:33:01.580Z,7.93
2022-08-17T09:38:17.836Z,8.77
2022-08-17T09:43:34.994Z,8.60
2022-08-17T09:48:44.505Z,8.20
2022-08-17T09:53:50.536Z,8.60
2022-08-17T09:59:38.666Z,8.10
2022-08-17T10:04:56.820Z,8.20
2022-08-17T10:10:14.184Z,9.07
2022-08-17T10:15:41.720Z,9.30
2022-08-17T10:21:15.176Z,9.68
2022-08-17T10:26:25.740Z,10.03
2022-08-17T10:31:41.378Z,8.80
2022-08-17T10:36:55.031Z,8.57
2022-08-17T10:42:14.136Z,9.70
2022-08-17T10:48:05.766Z,11.00
2022-08-17T10:53:15.509Z,10.07
2022-08-17T10:58:29.902Z,10.30
2022-08-17T11:03:38.312Z,11.47
2022-08-17T11:09:12.732Z,9.98
2022-08-17T11:14:40.081Z,10.60
2022-08-17T11:20:19.587Z,9.10
2022-08-17T11:25:38.505Z,9.50
2022-08-17T11:30:51.379Z,9.35
2022-08-17T11:36:15.544Z,12.27
2022-08-17T11:41:28.436Z,10.17
2022-08-17T11:46:56.098Z,12.43
2022-08-17T11:52:42.192Z,12.38
2022-08-17T11:58:02.731Z,12.63
2022-08-17T12:03:29.332Z,13.05
2022-08-17T12:08:49.231Z,14.93
2022-08-17T12:14:02.483Z,14.83
2022-08-17T12:19:08.519Z,11.93
2022-08-17T12:24:37.565Z,13.05
2022-08-17T12:29:47.315Z,13.95
2022-08-17T12:34:54.352Z,15.13
2022-08-17T12:40:05.755Z,16.17
2022-08-17T12:45:25.235Z,16.08
2022-08-17T12:50:32.520Z,15.40
2022-08-17T12:55:43.027Z,15.85
2022-08-17T13:00:53.704Z,14.48
2022-08-17T13:06:01.308Z,14.87
2022-08-17T13:11:12.147Z,14.97
2022-08-17T13:16:21.246Z,14.50
2022-08-17T13:21:30.810Z,16.25
2022-08-17T13:26:44.842Z,15.10
2022-08-17T13:31:52.665Z,17.50
2022-08-17T13:37:27.436Z,18.60
2022-08-17T13:42:52.001Z,15.20
2022-08-17T13:48:08.890Z,16.23
2022-08-17T13:53:25.464Z,19.58
2022-08-17T13:58:38.301Z,20.33
2022-08-17T14:03:44.411Z,18.20
2022-08-17T14:08:57.581Z,19.33
2022-08-17T14:14:06.380Z,19.33
2022-08-17T14:19:12.901Z,17.80
2022-08-17T14:24:32.383Z,19.27
2022-08-17T14:29:41.289Z,19.23
2022-08-17T14:34:47.399Z,19.97
2022-08-17T14:39:53.219Z,18.50
2022-08-17T14:45:06.622Z,20.10
2022-08-17T14:50:35.583Z,22.10
2022-08-17T14:55:42.766Z,18.93
2022-08-17T15:00:52.683Z,20.52
2022-08-17T15:05:58.585Z,21.08
2022-08-17T15:11:05.372Z,22.73
2022-08-17T15:16:14.142Z,22.40
2022-08-17T15:21:24.364Z,21.02
2022-08-17T15:26:30.498Z,20.00
2022-08-17T15:31:39.199Z,17.75
2022-08-17T15:36:49.454Z,17.95
2022-08-17T15:41:58.063Z,19.27
2022-08-17T15:47:07.149Z,22.27
2022-08-17T15:52:19.677Z,22.30
2022-08-17T15:57:26.223Z,18.52
2022-08-17T16:03:44.835Z,19.63
2022-08-17T16:08:02.655Z,18.42
2022-08-17T16:13:17.346Z,19.90
2022-08-17T16:18:31.261Z,17.70
2022-08-17T16:23:36.981Z,19.98
2022-08-17T16:28:42.429Z,15.77
2022-08-17T16:34:15.652Z,19.30
2022-08-17T16:39:18.086Z,16.23
2022-08-17T16:44:26.054Z,15.38
2022-08-17T16:49:36.954Z,12.48
2022-08-17T16:54:47.199Z,11.27
2022-08-17T16:59:53.589Z,10.32
2022-08-17T17:05:05.698Z,9.90
2022-08-17T17:10:15.586Z,9.87
2022-08-17T17:15:28.317Z,9.48
2022-08-17T17:20:47.475Z,9.43
2022-08-17T17:25:59.406Z,9.90
2022-08-17T17:31:11.195Z,8.00
2022-08-17T17:36:27.794Z,8.52
2022-08-17T17:41:39.766Z,8.07
2022-08-17T17:46:50.005Z,8.23
2022-08-17T17:52:09.682Z,7.55
2022-08-17T17:57:25.919Z,7.90
2022-08-17T18:02:52.717Z,7.80
2022-08-17T18:08:11.012Z,7.57
2022-08-17T18:13:25.928Z,7.88
2022-08-17T18:18:44.635Z,7.40
2022-08-17T18:23:58.108Z,8.93
2022-08-17T18:29:10.703Z,8.10
2022-08-17T18:39:54.317Z,10.67
2022-08-17T18:44:59.971Z,9.60
2022-08-17T18:50:25.114Z,9.82
2022-08-17T18:55:33.544Z,12.80
2022-08-17T19:00:41.478Z,10.70
2022-08-17T19:05:49.562Z,9.40
2022-08-17T19:11:02.004Z,9.00
2022-08-17T19:16:16.132Z,9.00
2022-08-17T19:21:25.930Z,8.35
2022-08-17T19:26:50.721Z,9.65
2022-08-17T19:32:01.076Z,8.03
2022-08-17T19:37:13.090Z,8.18
2022-08-17T19:42:34.227Z,7.70
2022-08-17T19:47:55.348Z,8.70
2022-08-17T19:53:07.600Z,8.45
2022-08-17T19:58:30.113Z,10.18
2022-08-17T20:03:41.147Z,9.00
2022-08-17T20:09:01.751Z,10.33
2022-08-17T20:14:14.893Z,9.85
2022-08-17T20:19:27.086Z,9.18
2022-08-17T20:24:38.497Z,9.87
2022-08-17T20:30:09.210Z,9.60
2022-08-17T20:35:33.307Z,9.30
2022-08-17T20:40:42.271Z,10.20
2022-08-17T20:46:11.067Z,10.10
2022-08-17T20:51:26.070Z,10.18
2022-08-17T20:56:57.989Z,9.63
2022-08-17T21:02:18.590Z,10.80
2022-08-17T21:07:33.068Z,10.95
2022-08-17T21:13:02.304Z,10.95
2022-08-17T21:18:19.514Z,11.00
2022-08-17T21:23:43.974Z,10.52
2022-08-17T21:29:17.196Z,11.00
2022-08-17T21:34:38.961Z,10.60
2022-08-17T21:39:54.148Z,10.60
2022-08-17T21:45:04.506Z,11.70
2022-08-17T21:50:27.938Z,10.87
2022-08-17T21:55:38.743Z,11.27
2022-08-17T22:00:46.825Z,12.95
2022-08-17T22:05:55.004Z,12.95
2022-08-17T22:11:04.530Z,12.80
2022-08-17T22:16:29.437Z,12.02
2022-08-17T22:21:38.095Z,15.90
2022-08-17T22:27:12.107Z,17.43
2022-08-17T22:32:35.078Z,15.82
2022-08-17T22:37:43.242Z,14.40
2022-08-17T22:42:53.570Z,13.50
2022-08-17T22:48:02.193Z,13.37
2022-08-17T22:53:32.089Z,17.10
2022-08-17T22:58:58.765Z,17.15
2022-08-17T23:04:09.071Z,17.93
2022-08-17T23:09:17.186Z,14.73
2022-08-17T23:14:24.180Z,16.60
2022-08-17T23:19:32.807Z,16.43
2022-08-17T23:24:44.951Z,18.08
2022-08-17T23:29:50.847Z,20.10
2022-08-17T23:34:59.283Z,17.33
2022-08-17T23:40:08.694Z,23.00
2022-08-17T23:45:14.711Z,22.92
2022-08-17T23:50:20.739Z,23.20
2022-08-17T23:55:30.640Z,21.60
